Time;durP1;ratioP1;P1;durP2;ratioP2;P2;SDS_P1;SDS_P2;PMS_P1;PMS_P2;Temp;Humidity;BMP_temperature;BMP_pressure;BME280_temperature;BME280_humidity;BME280_pressure;Samples;Min_cycle;Max_cycle;Signal;HPM_P1;HPM_P2
2022/05/23 00:00:57;;;;;;;5.95;4.45;;;;;;;20.02;77.81;98806.96;1827552;77;21495;-72
2022/05/23 00:03:23;;;;;;;5.45;4.30;;;;;;;20.01;77.87;98812.59;1824231;78;21114;-71
2022/05/23 00:05:50;;;;;;;5.15;3.77;;;;;;;19.97;77.93;98806.92;1828616;77;20966;-71
2022/05/23 00:08:18;;;;;;;5.00;3.80;;;;;;;20.01;77.85;98804.00;1842414;77;21008;-72
2022/05/23 00:10:44;;;;;;;4.92;4.03;;;;;;;20.07;77.67;98812.13;1832892;77;20910;-72
2022/05/23 00:13:11;;;;;;;4.35;3.95;;;;;;;20.03;77.68;98803.75;1839368;77;21057;-72
2022/05/23 00:15:39;;;;;;;5.08;3.52;;;;;;;20.00;77.83;98806.94;1788024;78;21862;-72
2022/05/23 00:18:07;;;;;;;6.17;4.33;;;;;;;19.97;77.97;98807.44;1792639;78;20985;-72
2022/05/23 00:20:35;;;;;;;5.22;3.60;;;;;;;19.94;78.01;98813.34;1798670;78;20900;-72
2022/05/23 00:23:02;;;;;;;4.20;3.40;;;;;;;19.97;78.00;98816.36;1802829;78;21076;-72
2022/05/23 00:25:28;;;;;;;4.12;3.70;;;;;;;20.03;77.75;98814.00;1810601;78;21037;-73
2022/05/23 00:27:55;;;;;;;4.37;3.70;;;;;;;20.01;77.83;98817.99;1788314;78;21305;-73
2022/05/23 00:30:24;;;;;;;4.22;3.30;;;;;;;19.97;77.84;98818.22;1796267;78;21074;-72
2022/05/23 00:35:36;;;;;;;4.60;3.62;;;;;;;19.92;77.97;98826.27;1778579;78;22050;-74
2022/05/23 00:38:05;;;;;;;4.00;3.30;;;;;;;19.92;78.05;98820.33;1787284;78;21029;-73
2022/05/23 00:40:38;;;;;;;4.47;3.50;;;;;;;19.99;77.84;98826.86;1800233;78;21044;-73
2022/05/23 00:43:16;;;;;;;4.80;3.60;;;;;;;19.98;77.83;98831.98;1806678;78;21540;-73
2022/05/23 00:45:54;;;;;;;4.83;3.37;;;;;;;19.93;77.97;98831.38;1800438;78;21072;-72
2022/05/23 00:48:26;;;;;;;4.25;3.40;;;;;;;19.90;78.03;98833.78;1779623;78;21644;-72
2022/05/23 00:51:00;;;;;;;4.12;3.30;;;;;;;19.86;78.12;98838.86;1802687;78;21261;-73
2022/05/23 00:53:41;;;;;;;3.90;3.27;;;;;;;19.89;78.12;98831.60;1803566;78;21138;-73
2022/05/23 00:56:11;;;;;;;3.90;2.98;;;;;;;19.96;77.93;98838.17;1750903;78;21068;-73
2022/05/23 00:58:45;;;;;;;4.97;3.70;;;;;;;19.92;78.02;98839.74;1764964;79;21033;-73
2022/05/23 01:01:15;;;;;;;5.30;3.62;;;;;;;19.88;78.09;98850.74;1785726;79;21069;-72
2022/05/23 01:03:42;;;;;;;4.33;3.22;;;;;;;19.84;78.22;98845.84;1763715;79;21073;-73
2022/05/23 01:06:08;;;;;;;4.08;2.87;;;;;;;19.81;78.29;98849.56;1781927;80;21126;-72
2022/05/23 01:08:39;;;;;;;4.45;3.37;;;;;;;19.84;78.23;98844.50;1768075;81;20991;-72
2022/05/23 01:11:06;;;;;;;3.40;3.00;;;;;;;19.92;78.00;98844.59;1819941;77;21009;-71
2022/05/23 01:13:34;;;;;;;3.87;3.17;;;;;;;19.88;78.09;98847.51;1835438;77;21531;-72
2022/05/23 01:16:01;;;;;;;4.50;3.40;;;;;;;19.84;78.16;98851.23;1814523;79;21501;-71
2022/05/23 01:18:29;;;;;;;3.40;2.95;;;;;;;19.82;78.19;98853.91;1841749;77;21317;-72
2022/05/23 01:20:58;;;;;;;3.37;2.95;;;;;;;19.80;78.24;98854.15;1814322;77;21062;-69
2022/05/23 01:23:53;;;;;;;4.22;2.70;;;;;;;19.83;78.18;98856.87;1826140;77;21503;-70
2022/05/23 01:26:22;;;;;;;3.37;3.08;;;;;;;19.90;77.92;98857.50;1829197;77;20982;-72
2022/05/23 01:28:51;;;;;;;4.72;3.83;;;;;;;19.86;78.03;98851.50;1809135;77;21017;-72
2022/05/23 01:31:36;;;;;;;3.60;3.30;;;;;;;19.81;78.06;98860.34;1833673;77;21214;-72
2022/05/23 01:34:04;;;;;;;3.15;2.80;;;;;;;19.77;78.23;98857.33;1833124;77;21481;-71
2022/05/23 01:36:32;;;;;;;3.40;3.02;;;;;;;19.73;78.28;98862.94;1762621;79;21053;-71
2022/05/23 01:38:58;;;;;;;3.75;3.22;;;;;;;19.78;78.24;98865.71;1759189;80;21050;-73
2022/05/23 01:41:26;;;;;;;3.60;2.83;;;;;;;19.84;78.00;98860.66;1762278;80;21030;-73
2022/05/23 01:43:55;;;;;;;3.40;3.10;;;;;;;19.80;78.04;98867.63;1757487;81;21972;-74
2022/05/23 01:46:23;;;;;;;4.03;3.40;;;;;;;19.76;78.17;98865.15;1781596;79;21069;-72
2022/05/23 01:49:06;;;;;;;;;;;;;;;19.73;78.22;98865.64;1759873;80;21065;-72
2022/05/23 01:51:33;;;;;;;3.98;3.58;;;;;;;19.71;78.33;98869.62;1776294;79;20156;-73
2022/05/23 01:54:00;;;;;;;5.65;3.77;;;;;;;19.69;78.36;98869.86;1760176;79;21536;-73
2022/05/23 01:56:27;;;;;;;4.33;3.70;;;;;;;19.78;78.06;98872.45;1778754;79;21268;-72
2022/05/23 02:01:40;;;;;;;4.42;3.52;;;;;;;19.73;78.20;98883.15;1820459;77;21029;-73
2022/05/23 02:04:09;;;;;;;5.00;4.05;;;;;;;19.69;78.28;98872.56;1820067;78;21030;-73
2022/05/23 02:06:40;;;;;;;3.58;3.00;;;;;;;19.65;78.38;98872.78;1840046;77;21072;-74
2022/05/23 02:09:09;;;;;;;4.12;3.62;;;;;;;19.69;78.34;98873.91;1841136;77;21144;-73
2022/05/23 02:11:37;;;;;;;5.03;3.87;;;;;;;19.76;78.11;98875.93;1818412;77;21037;-73
2022/05/23 02:14:04;;;;;;;4.85;3.45;;;;;;;19.73;78.11;98883.15;1774808;80;21073;-72
2022/05/23 02:16:32;;;;;;;5.33;3.92;;;;;;;19.69;78.19;98881.98;1852139;77;21061;-73
2022/05/23 02:19:00;;;;;;;5.70;3.90;;;;;;;19.67;78.28;98883.31;1821879;77;21539;-73
2022/05/23 02:21:27;;;;;;;4.10;3.40;;;;;;;19.64;78.30;98880.56;1822875;77;21135;-73
2022/05/23 02:23:54;;;;;;;4.55;4.00;;;;;;;19.65;78.38;98887.59;1818499;77;21069;-73
2022/05/23 02:26:21;;;;;;;3.80;3.35;;;;;;;19.74;78.15;98886.14;1801025;79;21490;-73
2022/05/23 02:28:52;;;;;;;4.10;3.55;;;;;;;19.72;78.10;98882.88;1827405;77;21020;-73
2022/05/23 02:31:26;;;;;;;4.80;4.05;;;;;;;19.69;78.19;98898.16;1849641;77;21538;-72
2022/05/23 02:33:55;;;;;;;5.08;4.20;;;;;;;19.65;78.25;98891.64;1827245;77;22351;-72
2022/05/23 02:36:23;;;;;;;4.65;3.80;;;;;;;19.62;78.35;98893.47;1830257;77;21617;-72
2022/05/23 02:38:50;;;;;;;5.62;3.75;;;;;;;19.63;78.39;98900.50;1827115;77;21100;-71
2022/05/23 02:41:17;;;;;;;3.95;3.47;;;;;;;19.72;78.19;98903.09;1757447;80;20990;-72
2022/05/23 02:43:43;;;;;;;4.58;4.10;;;;;;;19.70;78.14;98906.53;1846145;77;21013;-71
2022/05/23 02:46:13;;;;;;;6.17;3.72;;;;;;;19.67;78.25;98904.33;1835331;77;21192;-72
2022/05/23 02:48:42;;;;;;;4.17;3.67;;;;;;;19.64;78.30;98907.50;1837058;77;21064;-72
2022/05/23 02:51:09;;;;;;;4.28;3.08;;;;;;;19.62;78.41;98913.67;1820056;77;21003;-72
2022/05/23 02:53:36;;;;;;;4.33;3.58;;;;;;;19.61;78.44;98913.41;1836377;77;21513;-71
2022/05/23 02:56:04;;;;;;;4.53;3.95;;;;;;;19.70;78.16;98910.58;1836682;77;20998;-73
2022/05/23 02:58:30;;;;;;;4.33;3.87;;;;;;;19.71;78.16;98911.39;1840215;77;21827;-71
2022/05/23 03:00:57;;;;;;;4.25;3.85;;;;;;;19.65;78.28;98909.15;1837475;77;21001;-71
2022/05/23 03:03:24;;;;;;;5.42;3.98;;;;;;;19.62;78.41;98918.55;1827089;77;21057;-72
2022/05/23 03:05:53;;;;;;;5.30;3.67;;;;;;;19.60;78.56;98917.95;1830185;77;21041;-71
2022/05/23 03:08:23;;;;;;;4.12;3.55;;;;;;;19.61;78.57;98921.48;1779747;80;21030;-73
2022/05/23 03:10:51;;;;;;;3.75;3.20;;;;;;;19.70;78.34;98924.05;1787227;78;21726;-73
2022/05/23 03:13:19;;;;;;;4.35;3.77;;;;;;;19.68;78.29;98930.19;1780343;79;21073;-72
2022/05/23 03:15:45;;;;;;;3.92;3.52;;;;;;;19.64;78.34;98931.24;1813238;78;21046;-73
2022/05/23 03:18:13;;;;;;;5.50;3.90;;;;;;;19.62;78.45;98936.57;1800313;79;21065;-73
2022/05/23 03:20:43;;;;;;;3.52;3.20;;;;;;;19.60;78.52;98933.31;1774362;80;21020;-72
2022/05/23 03:28:43;;;;;;;3.77;3.37;;;;;;;19.68;78.37;98942.31;1765274;79;21053;-72
2022/05/23 03:31:09;;;;;;;3.72;3.42;;;;;;;19.62;78.51;98942.80;1827351;77;21041;-71
2022/05/23 03:33:37;;;;;;;4.28;3.27;;;;;;;19.60;78.62;98942.73;1828700;77;21036;-72
2022/05/23 03:36:04;;;;;;;3.58;3.10;;;;;;;19.58;78.73;98947.56;1828780;77;21428;-72
2022/05/23 03:38:31;;;;;;;4.17;3.37;;;;;;;19.61;78.73;98939.80;1826863;77;21070;-72
2022/05/23 03:41:06;;;;;;;4.40;3.58;;;;;;;19.69;78.55;98937.77;1772518;80;21163;-76
2022/05/23 03:43:33;;;;;;;7.58;4.12;;;;;;;19.67;78.53;98946.09;1778945;79;21031;-70
2022/05/23 03:46:09;;;;;;;6.70;3.95;;;;;;;19.63;77.64;98946.30;1808372;78;21040;-73
2022/05/23 03:48:36;;;;;;;6.00;3.95;;;;;;;19.67;75.47;98950.13;1833203;77;21089;-71
2022/05/23 03:51:03;;;;;;;9.10;3.95;;;;;;;19.80;74.56;98947.13;1836971;77;21021;-73
2022/05/23 03:53:30;;;;;;;5.42;4.05;;;;;;;19.94;74.37;98944.89;1834996;77;21065;-70
2022/05/23 03:55:59;;;;;;;11.10;5.00;;;;;;;20.07;74.43;98949.11;1833843;77;21072;-71
2022/05/23 03:58:26;;;;;;;8.03;4.60;;;;;;;20.20;74.34;98950.09;1851933;77;20990;-72
2022/05/23 04:01:14;;;;;;;8.35;4.33;;;;;;;20.33;74.23;98948.08;1824874;77;21203;-72
2022/05/23 04:03:41;;;;;;;8.38;4.20;;;;;;;20.53;73.90;98948.84;1816055;77;21470;-69
2022/05/23 04:06:08;;;;;;;8.93;4.78;;;;;;;20.71;73.27;98947.73;1817089;77;21057;-71
2022/05/23 04:08:37;;;;;;;9.90;4.05;;;;;;;20.80;72.74;98948.38;1832542;77;21085;-69
2022/05/23 04:11:06;;;;;;;7.47;3.92;;;;;;;20.88;72.22;98943.56;1845222;77;21565;-74
2022/05/23 04:13:33;;;;;;;7.80;4.12;;;;;;;20.94;71.76;98946.08;1772850;80;21130;-71
2022/05/23 04:15:59;;;;;;;5.92;4.25;;;;;;;21.01;71.25;98948.05;1766627;80;21037;-71
2022/05/23 04:18:26;;;;;;;10.72;4.17;;;;;;;21.08;70.81;98941.61;1769773;79;21484;-75
2022/05/23 04:20:58;;;;;;;9.13;4.62;;;;;;;21.14;70.71;98944.63;1761996;80;21058;-75
2022/05/23 04:23:26;;;;;;;8.45;4.33;;;;;;;21.19;70.62;98945.48;1728487;82;21048;-69
2022/05/23 04:25:53;;;;;;;7.33;4.17;;;;;;;21.24;70.33;98950.11;1751289;81;21143;-74
2022/05/23 04:28:20;;;;;;;7.17;3.83;;;;;;;21.29;69.98;98954.22;1770980;80;21497;-74
2022/05/23 04:30:47;;;;;;;12.30;5.35;;;;;;;21.33;69.59;98950.47;1769744;80;21046;-69
2022/05/23 04:36:01;;;;;;;5.37;4.53;;;;;;;21.42;73.45;98951.59;1816021;77;20991;-67
2022/05/23 04:38:30;;;;;;;8.98;4.70;;;;;;;21.49;74.29;98945.47;1784546;79;21983;-66
2022/05/23 04:40:59;;;;;;;10.82;4.60;;;;;;;21.43;74.75;98954.59;1745437;80;21031;-66
2022/05/23 04:43:25;;;;;;;7.87;5.12;;;;;;;21.35;75.17;98951.83;1761395;80;21489;-66
2022/05/23 04:45:53;;;;;;;5.92;4.75;;;;;;;21.29;75.55;98948.81;1847180;77;21029;-66
2022/05/23 04:51:06;;;;;;;6.62;4.00;;;;;;;21.26;76.03;98956.06;1818036;77;21815;-66
2022/05/23 04:53:34;;;;;;;5.55;4.65;;;;;;;21.31;75.93;98956.66;1807997;77;21022;-66
2022/05/23 04:56:07;;;;;;;6.25;4.65;;;;;;;21.26;76.08;98951.20;1814297;77;21002;-67
2022/05/23 04:58:35;;;;;;;7.65;4.30;;;;;;;21.21;76.33;98947.94;1803186;78;21041;-66
2022/05/23 05:01:02;;;;;;;5.12;4.10;;;;;;;21.17;76.60;98948.14;1815984;78;21068;-66
2022/05/23 05:03:29;;;;;;;5.17;4.28;;;;;;;21.14;76.85;98954.08;1817194;78;21132;-65
2022/05/23 05:05:55;;;;;;;7.08;4.67;;;;;;;21.16;76.92;98950.59;1806535;78;21023;-66
2022/05/23 05:08:22;;;;;;;7.85;4.67;;;;;;;21.20;76.84;98949.80;1808199;78;21034;-66
2022/05/23 05:10:53;;;;;;;6.25;4.40;;;;;;;21.18;76.95;98952.49;1760363;80;22012;-66
2022/05/23 05:13:20;;;;;;;5.83;4.25;;;;;;;21.14;77.12;98954.08;1819859;78;21013;-66
2022/05/23 05:15:47;;;;;;;7.62;4.87;;;;;;;21.12;77.29;98953.52;1817326;77;21701;-67
2022/05/23 05:18:15;;;;;;;5.45;4.08;;;;;;;21.09;77.39;98952.13;1818370;78;21057;-66
2022/05/23 05:20:44;;;;;;;6.10;4.20;;;;;;;21.09;77.49;98952.67;1789693;78;21044;-65
2022/05/23 05:23:20;;;;;;;8.15;4.58;;;;;;;21.17;77.31;98953.03;1754345;78;21047;-66
2022/05/23 05:25:53;;;;;;;6.70;4.22;;;;;;;21.16;77.29;98950.59;1786461;79;21029;-66
2022/05/23 05:28:21;;;;;;;5.90;4.55;;;;;;;21.13;77.42;98953.27;1807285;79;21131;-66
2022/05/23 05:30:56;;;;;;;5.30;4.80;;;;;;;21.10;77.53;98959.17;1810990;78;21014;-67
2022/05/23 05:33:31;;;;;;;5.80;4.83;;;;;;;21.07;77.59;98963.72;1816151;78;21509;-67
2022/05/23 05:36:04;;;;;;;6.80;4.65;;;;;;;21.06;77.64;98958.61;1791845;79;21006;-67
2022/05/23 05:38:36;;;;;;;7.28;4.42;;;;;;;21.16;77.41;98965.44;1807160;79;21065;-66
2022/05/23 05:41:11;;;;;;;4.53;4.13;;;;;;;21.16;77.37;98956.80;1812875;78;21792;-66
2022/05/23 05:43:44;;;;;;;5.83;4.30;;;;;;;21.13;77.39;98958.67;1784018;78;21034;-66
2022/05/23 05:46:29;;;;;;;5.62;3.90;;;;;;;21.09;77.46;98958.88;1776790;78;21114;-67
2022/05/23 05:49:00;;;;;;;6.58;3.90;;;;;;;21.09;77.48;98962.13;1774991;78;21007;-66
2022/05/23 05:51:27;;;;;;;5.25;4.25;;;;;;;21.06;77.59;98964.81;1805512;78;21010;-66
2022/05/23 05:54:15;;;;;;;5.62;4.60;;;;;;;21.16;77.36;98963.55;1788112;78;21579;-67
2022/05/23 05:56:45;;;;;;;;;;;;;;;21.18;77.21;98962.75;1811728;77;21077;-67
2022/05/23 05:59:13;;;;;;;5.12;4.42;;;;;;;21.16;77.27;98964.09;1824953;77;20165;-66
2022/05/23 06:01:42;;;;;;;4.42;3.75;;;;;;;21.12;77.26;98963.78;1829241;77;20970;-67
2022/05/23 06:04:09;;;;;;;6.37;4.17;;;;;;;21.11;77.21;98959.98;1847628;77;21104;-66
2022/05/23 06:12:28;;;;;;;5.83;3.85;;;;;;;21.25;76.70;98966.61;1847589;77;21089;-66
2022/05/23 06:14:57;;;;;;;5.58;4.53;;;;;;;21.23;76.71;98970.61;1822885;77;21011;-66
2022/05/23 06:17:24;;;;;;;5.60;4.30;;;;;;;21.20;76.81;98972.76;1847636;77;21492;-67
2022/05/23 06:19:53;;;;;;;4.50;3.98;;;;;;;21.19;76.81;98973.05;1847585;77;21963;-66
2022/05/23 06:22:21;;;;;;;4.10;3.70;;;;;;;21.17;76.78;98971.94;1817427;77;20998;-67
2022/05/23 06:24:53;;;;;;;4.83;4.03;;;;;;;21.17;76.72;98974.64;1830472;77;21014;-67
2022/05/23 06:27:21;;;;;;;4.60;4.10;;;;;;;21.28;76.41;98972.83;1843980;77;21053;-66
2022/05/23 06:30:12;;;;;;;4.65;4.20;;;;;;;21.31;76.26;98974.22;1815404;77;21628;-67
2022/05/23 06:32:48;;;;;;;5.35;4.00;;;;;;;21.29;76.21;98975.02;1816934;77;22040;-67
2022/05/23 06:35:16;;;;;;;4.20;3.80;;;;;;;21.26;76.16;98981.73;1814334;78;21073;-66
2022/05/23 06:37:44;;;;;;;4.35;3.80;;;;;;;21.26;76.19;98979.57;1823825;77;21101;-68
2022/05/23 06:40:29;;;;;;;8.85;4.28;;;;;;;21.25;76.20;98979.27;1763861;79;21038;-66
2022/05/23 06:43:15;;;;;;;14.93;7.60;;;;;;;21.24;76.18;98981.17;1769844;79;21023;-63
2022/05/23 06:45:47;;;;;;;13.03;7.58;;;;;;;21.34;72.69;98974.52;1792419;79;21187;-64
2022/05/23 06:48:29;;;;;;;13.00;6.67;;;;;;;21.41;71.34;98971.05;1773353;80;21178;-64
2022/05/23 06:50:58;;;;;;;13.22;7.35;;;;;;;21.49;70.82;98977.09;1766645;79;21072;-63
2022/05/23 06:53:38;;;;;;;15.23;7.55;;;;;;;21.57;70.52;98976.06;1772036;79;21033;-63
2022/05/23 06:56:09;;;;;;;15.18;8.03;;;;;;;21.66;70.27;98983.16;1754547;80;21054;-63
2022/05/23 06:58:36;;;;;;;10.90;7.33;;;;;;;21.73;69.90;98981.58;1770241;80;21240;-62
2022/05/23 07:01:04;;;;;;;66.07;42.85;;;;;;;21.82;69.61;98985.43;1776178;79;21562;-63
2022/05/23 07:03:36;;;;;;;44.98;28.57;;;;;;;21.88;69.21;98985.73;1775629;79;21500;-62
2022/05/23 07:14:28;;;;;;;32.35;18.37;;;;;;;22.12;67.88;98986.70;1773569;79;21041;-61
2022/05/23 07:16:56;;;;;;;32.48;17.12;;;;;;;22.16;67.71;98982.40;1762083;79;21041;-61
2022/05/23 07:19:41;;;;;;;21.93;14.75;;;;;;;22.19;67.55;98978.63;1773721;79;21104;-62
2022/05/23 07:22:09;;;;;;;43.40;29.50;;;;;;;22.24;67.36;98974.32;1779347;79;21061;-62
2022/05/23 07:24:38;;;;;;;31.12;21.20;;;;;;;22.27;67.11;98975.16;1774074;79;21922;-62
2022/05/23 07:27:06;;;;;;;34.25;20.12;;;;;;;22.30;66.86;98977.35;1777899;79;21053;-62
2022/05/23 07:29:33;;;;;;;23.92;17.55;;;;;;;22.34;66.60;98981.16;1769201;79;21058;-60
2022/05/23 07:32:02;;;;;;;24.55;16.25;;;;;;;22.36;66.38;98973.04;1789317;79;21096;-62
2022/05/23 07:34:29;;;;;;;24.90;14.38;;;;;;;22.42;66.04;98979.84;1786649;79;21103;-61
2022/05/23 07:36:56;;;;;;;21.45;13.80;;;;;;;22.45;65.64;98976.61;1771202;79;21157;-61
2022/05/23 07:39:24;;;;;;;18.70;11.15;;;;;;;22.48;65.30;98976.06;1771082;79;21529;-61
2022/05/23 07:41:59;;;;;;;17.73;11.10;;;;;;;22.52;64.94;98978.51;1770477;79;21538;-60
2022/05/23 07:44:28;;;;;;;17.77;10.28;;;;;;;22.54;64.60;98974.48;1774831;79;21113;-67
2022/05/23 07:46:56;;;;;;;15.70;9.13;;;;;;;22.57;64.27;98977.19;1780256;79;21033;-57
2022/05/23 07:49:24;;;;;;;12.55;8.35;;;;;;;22.60;63.06;98984.78;1779991;79;21139;-58
2022/05/23 07:51:56;;;;;;;11.30;7.95;;;;;;;22.63;62.09;98975.31;1782668;79;21026;-57
2022/05/23 08:02:43;;;;;;;10.50;6.65;;;;;;;22.65;60.75;98974.50;1774075;79;21163;-58
2022/05/23 08:05:12;;;;;;;9.33;6.50;;;;;;;22.64;59.62;98977.76;1772703;79;21060;-57
2022/05/23 08:07:42;;;;;;;11.95;6.28;;;;;;;22.64;58.58;98982.34;1769115;79;21077;-58
2022/05/23 08:10:11;;;;;;;11.97;6.03;;;;;;;22.62;57.90;98973.67;1776431;79;21088;-57
2022/05/23 08:12:38;;;;;;;8.58;5.85;;;;;;;22.61;57.69;98976.12;1795208;79;21315;-57
2022/05/23 08:15:09;;;;;;;8.80;5.70;;;;;;;22.58;57.38;98980.98;1783419;79;22902;-58
2022/05/23 08:17:36;;;;;;;8.60;5.53;;;;;;;22.57;57.33;98971.77;1783409;79;21063;-57
2022/05/23 08:20:06;;;;;;;10.28;5.87;;;;;;;22.57;57.43;98970.42;1767653;79;21123;-56
2022/05/23 08:22:35;;;;;;;6.58;5.87;;;;;;;22.56;57.24;98970.13;1775043;79;21062;-58
2022/05/23 08:25:05;;;;;;;7.25;5.90;;;;;;;22.55;57.40;98968.52;1784186;79;21077;-58
2022/05/23 08:27:34;;;;;;;10.30;6.47;;;;;;;22.55;57.62;98968.52;1769357;79;21351;-60
2022/05/23 08:30:03;;;;;;;10.43;5.97;;;;;;;22.54;58.08;98965.52;1782818;79;21510;-57
2022/05/23 08:32:30;;;;;;;8.53;6.00;;;;;;;22.54;58.47;98970.94;1786584;79;21033;-58
2022/05/23 08:34:59;;;;;;;7.05;5.28;;;;;;;22.54;58.32;98965.01;1776405;79;21088;-56
2022/05/23 08:37:26;;;;;;;6.15;5.40;;;;;;;22.53;58.01;98965.27;1756765;79;21028;-56
2022/05/23 08:39:53;;;;;;;10.45;5.80;;;;;;;22.52;58.02;98968.52;1788285;79;21150;-59
2022/05/23 08:42:35;;;;;;;9.70;5.53;;;;;;;22.52;59.21;98971.74;1778768;79;21528;-57
2022/05/23 08:45:26;;;;;;;8.23;5.00;;;;;;;22.50;60.05;98968.48;1775779;79;21485;-57
2022/05/23 08:48:32;;;;;;;6.60;4.67;;;;;;;22.47;60.10;98969.84;1768570;79;21134;-55
2022/05/23 08:51:28;;;;;;;9.60;5.20;;;;;;;22.44;59.12;98971.72;1786245;79;21029;-56
2022/05/23 08:54:14;;;;;;;7.20;5.03;;;;;;;22.41;58.59;98972.78;1762987;79;21185;-55
2022/05/23 08:56:54;;;;;;;7.28;4.53;;;;;;;22.36;58.12;98974.39;1775829;79;21013;-56
2022/05/23 08:59:43;;;;;;;9.33;5.47;;;;;;;22.33;57.77;98974.13;1771526;79;21022;-56
2022/05/23 09:02:15;;;;;;;8.55;4.50;;;;;;;22.32;57.55;98972.48;1787104;79;21016;-57
2022/05/23 09:04:52;;;;;;;6.65;4.35;;;;;;;22.31;57.38;98980.31;1772463;80;21611;-55
2022/05/23 09:07:41;;;;;;;6.33;4.95;;;;;;;22.29;57.08;98971.13;1743439;82;21673;-57
2022/05/23 09:10:13;;;;;;;6.62;4.65;;;;;;;22.31;56.87;98978.97;1768855;80;22098;-56
2022/05/23 09:12:40;;;;;;;6.97;4.33;;;;;;;22.29;56.66;98977.06;1743475;82;21047;-56
2022/05/23 09:15:08;;;;;;;9.30;4.50;;;;;;;22.28;56.48;98980.31;1782339;79;21076;-56
2022/05/23 09:17:39;;;;;;;6.15;4.92;;;;;;;22.28;56.49;98993.03;1772039;80;21050;-58
2022/05/23 09:20:13;;;;;;;7.53;4.58;;;;;;;22.27;56.79;98994.09;1806025;79;21110;-56
2022/05/23 09:22:56;;;;;;;6.05;4.22;;;;;;;22.27;56.90;98995.45;1752247;80;21003;-57
2022/05/23 09:25:27;;;;;;;6.80;4.70;;;;;;;22.25;56.88;98998.45;1752617;80;21038;-56
2022/05/23 09:28:35;;;;;;;5.87;4.30;;;;;;;22.26;56.82;98993.84;1807836;79;21972;-56
2022/05/23 09:31:31;;;;;;;5.30;4.75;;;;;;;22.24;56.88;98994.06;1775695;80;21526;-56
2022/05/23 09:33:59;;;;;;;7.22;4.60;;;;;;;22.24;56.84;98997.31;1775164;79;21525;-57
2022/05/23 09:36:38;;;;;;;7.90;4.58;;;;;;;22.24;56.83;98995.97;1797252;79;20971;-57
2022/05/23 09:39:10;;;;;;;6.17;3.90;;;;;;;22.24;56.73;99000.02;1807475;79;21034;-57
2022/05/23 09:50:08;;;;;;;8.58;4.87;;;;;;;22.36;56.77;98982.51;1804972;79;21479;-56
2022/05/23 09:52:42;;;;;;;5.90;4.28;;;;;;;22.43;56.89;98980.92;1761264;80;21108;-57
2022/05/23 09:55:10;;;;;;;7.72;4.40;;;;;;;22.47;56.47;98980.67;1741491;80;21075;-56
2022/05/23 09:57:43;;;;;;;11.50;4.50;;;;;;;22.52;56.27;98971.74;1827729;77;21068;-56
2022/05/23 10:00:24;;;;;;;6.25;4.60;;;;;;;22.55;56.13;98970.68;1817012;77;21709;-55
2022/05/23 10:03:01;;;;;;;5.33;4.53;;;;;;;22.59;55.64;98979.09;1782020;78;21010;-57
2022/05/23 10:05:40;;;;;;;7.05;4.20;;;;;;;22.60;55.46;98981.25;1805399;77;21007;-56
2022/05/23 10:08:32;;;;;;;6.17;4.30;;;;;;;22.61;54.91;98991.01;1778262;78;21509;-57
2022/05/23 10:11:04;;;;;;;5.20;3.80;;;;;;;22.61;54.70;98992.36;1809151;77;21645;-56
2022/05/23 10:13:36;;;;;;;5.03;3.58;;;;;;;22.60;54.60;99004.25;1819278;77;21092;-56
2022/05/23 10:16:16;;;;;;;7.95;4.03;;;;;;;22.57;54.23;99010.47;1818949;78;21025;-57
2022/05/23 10:18:52;;;;;;;5.03;3.55;;;;;;;22.56;54.21;99021.04;1813265;78;21077;-56
2022/05/23 10:21:32;;;;;;;6.37;3.37;;;;;;;22.54;53.91;99028.61;1779588;78;21018;-55
2022/05/23 10:24:07;;;;;;;4.80;3.35;;;;;;;22.52;53.70;99033.48;1791140;78;21045;-56
2022/05/23 10:26:51;;;;;;;6.62;3.80;;;;;;;22.50;53.74;99031.58;1813510;78;22013;-57
2022/05/23 10:29:26;;;;;;;4.42;3.10;;;;;;;22.47;53.95;99032.09;1813112;77;21022;-55
2022/05/23 10:32:01;;;;;;;5.78;3.83;;;;;;;22.45;54.12;99026.13;1820292;78;21073;-55
2022/05/23 10:34:49;;;;;;;8.00;3.20;;;;;;;22.44;53.97;99026.38;1802190;78;21018;-56
2022/05/23 10:37:22;;;;;;;5.62;3.05;;;;;;;22.43;54.16;99022.88;1785789;77;20983;-56
2022/05/23 10:43:07;;;;;;;4.90;3.22;;;;;;;22.42;53.73;99025.84;1817195;78;21055;-56
2022/05/23 10:45:47;;;;;;;5.28;3.55;;;;;;;22.39;53.65;99021.77;1791965;77;21137;-68
2022/05/23 10:48:35;;;;;;;3.98;3.22;;;;;;;22.38;53.88;99024.19;1786634;78;21033;-68
2022/05/23 10:51:24;;;;;;;3.70;3.17;;;;;;;22.36;54.63;99029.05;1773038;80;21034;-67
2022/05/23 10:54:03;;;;;;;5.08;2.85;;;;;;;22.29;55.60;99029.81;1789086;78;21130;-70
2022/05/23 10:56:57;;;;;;;5.58;3.15;;;;;;;22.22;56.14;99031.94;1774334;80;21033;-69
2022/05/23 10:59:41;;;;;;;4.03;3.10;;;;;;;22.15;56.63;99041.07;1796248;78;21104;-65
2022/05/23 11:02:28;;;;;;;4.28;3.05;;;;;;;22.08;56.84;99047.78;1824084;77;21006;-64
2022/05/23 11:05:06;;;;;;;4.12;2.60;;;;;;;22.00;56.19;99041.00;1847789;77;21028;-65
2022/05/23 11:07:47;;;;;;;5.62;3.15;;;;;;;21.94;56.05;99035.26;1847485;77;21211;-64
2022/05/23 11:10:29;;;;;;;10.03;3.12;;;;;;;21.88;55.99;99031.70;1845542;77;21617;-67
2022/05/23 11:13:25;;;;;;;3.02;2.72;;;;;;;21.83;55.15;99033.03;1826201;77;21181;-69
2022/05/23 11:15:57;;;;;;;4.05;3.17;;;;;;;21.79;54.60;99035.44;1819012;77;20959;-69
2022/05/23 11:19:02;;;;;;;4.75;3.08;;;;;;;21.76;54.48;99031.08;1822085;77;20997;-68
2022/05/23 11:22:03;;;;;;;3.02;2.60;;;;;;;21.74;54.52;99028.62;1830488;77;21145;-69
2022/05/23 11:24:56;;;;;;;3.77;2.80;;;;;;;21.71;53.97;99026.46;1847605;77;20962;-68
2022/05/23 11:35:59;;;;;;;3.22;2.15;;;;;;;21.63;54.06;99026.11;1836971;77;21222;-70
2022/05/23 11:38:28;;;;;;;5.37;2.77;;;;;;;21.62;53.81;99017.20;1824396;77;20997;-76
2022/05/23 11:41:10;;;;;;;3.70;2.65;;;;;;;21.60;53.52;99017.98;1819347;77;21038;-70
2022/05/23 11:43:37;;;;;;;5.37;2.27;;;;;;;21.60;53.81;99018.80;1838658;77;21509;-67
2022/05/23 11:46:06;;;;;;;4.95;2.45;;;;;;;21.59;54.05;99021.23;1850093;77;20986;-67
2022/05/23 11:48:45;;;;;;;4.03;2.33;;;;;;;21.59;54.66;99019.05;1829077;77;21112;-68
2022/05/23 11:51:37;;;;;;;3.75;2.87;;;;;;;21.58;55.56;99022.84;1814512;77;21012;-73
2022/05/23 11:54:14;;;;;;;2.62;2.27;;;;;;;21.60;56.56;99026.91;1835861;77;20974;-63
2022/05/23 11:57:06;;;;;;;2.85;2.45;;;;;;;21.60;57.17;99020.15;1824483;77;21477;-61
2022/05/23 11:59:41;;;;;;;2.85;2.58;;;;;;;21.60;57.26;99024.75;1844829;77;21541;-60
2022/05/23 12:02:13;;;;;;;4.70;2.50;;;;;;;21.60;57.08;99023.39;1836606;76;21406;-64
2022/05/23 12:04:56;;;;;;;3.92;2.47;;;;;;;21.61;56.55;99025.01;1833319;77;21505;-62
2022/05/23 12:07:56;;;;;;;2.75;2.55;;;;;;;21.61;56.39;99020.95;1816669;77;21000;-63
2022/05/23 12:10:29;;;;;;;4.35;2.20;;;;;;;21.64;55.82;99021.00;1814927;78;21027;-63
2022/05/23 12:16:28;;;;;;;5.25;2.80;;;;;;;21.70;54.69;99016.70;1889139;76;22602;-62
2022/05/23 12:19:29;;;;;;;3.85;3.20;;;;;;;21.69;54.27;99016.45;1852886;77;20972;-62
2022/05/23 12:22:33;;;;;;;4.15;2.85;;;;;;;21.73;53.92;99016.20;1856015;76;21971;-62
2022/05/23 12:25:17;;;;;;;3.72;2.95;;;;;;;21.76;53.77;99017.56;1859865;77;21474;-64
2022/05/23 12:27:52;;;;;;;4.08;2.95;;;;;;;21.80;53.49;99020.83;1860047;77;20965;-61
2022/05/23 12:30:31;;;;;;;4.05;3.08;;;;;;;21.85;52.13;99006.55;1860069;77;20993;-62
2022/05/23 12:33:06;;;;;;;9.40;2.62;;;;;;;21.91;51.23;99006.05;1826152;77;20926;-62
2022/05/23 12:35:44;;;;;;;3.42;3.02;;;;;;;21.97;50.79;99002.30;1837404;77;21149;-62
2022/05/23 12:38:36;;;;;;;4.28;2.90;;;;;;;22.06;50.60;98998.03;1859545;76;20961;-61
2022/05/23 12:41:46;;;;;;;3.37;2.98;;;;;;;22.22;51.22;99004.88;1838080;77;21030;-62
2022/05/23 12:44:36;;;;;;;3.95;3.15;;;;;;;22.52;49.48;99002.87;1836751;77;21489;-63
2022/05/23 12:47:16;;;;;;;7.53;3.10;;;;;;;22.77;47.91;99006.20;1838191;77;21004;-61
2022/05/23 12:50:20;;;;;;;6.20;3.02;;;;;;;22.86;46.21;99010.03;1860581;77;21136;-63
2022/05/23 12:53:10;;;;;;;4.50;3.05;;;;;;;22.91;45.43;99009.25;1857311;77;21508;-60
2022/05/23 12:56:13;;;;;;;2.90;2.60;;;;;;;22.90;45.74;99013.02;1843624;76;21553;-62
2022/05/23 12:59:23;;;;;;;4.83;3.12;;;;;;;22.87;45.85;99017.09;1770640;80;21529;-62
2022/05/23 13:01:56;;;;;;;5.08;3.27;;;;;;;22.80;45.65;99015.16;1812386;78;21540;-62
2022/05/23 13:04:27;;;;;;;4.92;2.85;;;;;;;22.74;45.42;99018.39;1805911;78;21102;-63